Time;durP1;ratioP1;P1;durP2;ratioP2;P2;SDS_P1;SDS_P2;PMS_P1;PMS_P2;Temp;Humidity;BMP_temperature;BMP_pressure;BME280_temperature;BME280_humidity;BME280_pressure;Samples;Min_cycle;Max_cycle;Signal;HPM_P1;HPM_P2
2023/07/23 00:00:38;;;;;;;;;;;;;;;14.88;100.00;100923.84;5064066;28;19931;-61
2023/07/23 00:03:03;;;;;;;;;;;;;;;14.88;100.00;100923.84;5061820;28;20064;-61
2023/07/23 00:05:28;;;;;;;;;;;;;;;14.88;100.00;100922.97;5059493;28;20174;-61
2023/07/23 00:07:54;;;;;;;;;;;;;;;14.86;100.00;100911.69;5066318;28;19936;-61
2023/07/23 00:10:20;;;;;;;;;;;;;;;14.85;100.00;100910.84;5067880;28;19932;-61
2023/07/23 00:12:45;;;;;;;;;;;;;;;14.86;100.00;100912.56;5064141;27;19920;-61
2023/07/23 00:15:12;;;;;;;;;;;;;;;14.86;100.00;100909.97;5067414;28;19921;-61
2023/07/23 00:17:39;;;;;;;;;;;;;;;14.87;100.00;100905.69;5066976;28;20011;-61
2023/07/23 00:20:04;;;;;;;;;;;;;;;14.85;100.00;100900.47;5066365;28;19965;-61
2023/07/23 00:22:29;;;;;;;;;;;;;;;14.85;100.00;100892.72;5064978;27;19943;-60
2023/07/23 00:24:56;;;;;;;;;;;;;;;14.86;100.00;100896.16;5040376;28;19975;-61
2023/07/23 00:27:22;;;;;;;;;;;;;;;14.84;100.00;100890.13;5058172;28;20405;-61
2023/07/23 00:29:47;;;;;;;;;;;;;;;14.84;100.00;100882.34;5056746;28;19989;-60
2023/07/23 00:32:13;;;;;;;;;;;;;;;14.83;100.00;100889.25;5061025;28;19928;-60
2023/07/23 00:34:38;;;;;;;;;;;;;;;14.83;100.00;100873.72;5041033;28;20414;-61
2023/07/23 00:37:03;;;;;;;;;;;;;;;14.84;100.00;100866.81;5057364;28;19924;-62
2023/07/23 00:39:29;;;;;;;;;;;;;;;14.83;100.00;100858.19;5040532;28;19924;-61
2023/07/23 00:41:54;;;;;;;;;;;;;;;14.84;100.00;100857.34;5054905;28;19925;-62
2023/07/23 00:44:19;;;;;;;;;;;;;;;14.86;100.00;100860.78;5061476;27;19948;-62
2023/07/23 00:46:45;;;;;;;;;;;;;;;14.85;100.00;100851.28;5061971;28;20294;-61
2023/07/23 00:49:11;;;;;;;;;;;;;;;14.84;100.00;100840.94;5062170;28;20194;-61
2023/07/23 00:51:37;;;;;;;;;;;;;;;14.83;100.00;100845.25;5059439;27;19921;-61
2023/07/23 00:54:03;;;;;;;;;;;;;;;14.84;100.00;100843.53;5058546;28;20275;-60
2023/07/23 00:56:29;;;;;;;;;;;;;;;14.85;100.00;100837.47;5057790;28;19925;-61
2023/07/23 00:58:55;;;;;;;;;;;;;;;14.84;100.00;100836.63;5057392;28;19921;-62
2023/07/23 01:01:20;;;;;;;;;;;;;;;14.84;100.00;100826.25;5055876;28;20301;-61
2023/07/23 01:03:46;;;;;;;;;;;;;;;14.85;100.00;100824.53;5057497;27;20370;-61
2023/07/23 01:06:13;;;;;;;;;;;;;;;14.85;100.00;100821.94;5040016;28;19984;-61
2023/07/23 01:08:38;;;;;;;;;;;;;;;14.83;100.00;100813.31;5064472;28;19920;-60
2023/07/23 01:11:04;;;;;;;;;;;;;;;14.82;100.00;100811.59;5064062;28;19924;-60
2023/07/23 01:13:29;;;;;;;;;;;;;;;14.81;100.00;100815.91;5064349;27;20334;-61
2023/07/23 01:15:55;;;;;;;;;;;;;;;14.80;100.00;100805.50;5066541;28;19912;-61
2023/07/23 01:18:21;;;;;;;;;;;;;;;14.81;100.00;100805.53;5064813;28;20057;-61
2023/07/23 01:20:46;;;;;;;;;;;;;;;14.81;100.00;100802.09;5063114;28;20004;-61
2023/07/23 01:23:11;;;;;;;;;;;;;;;14.80;100.00;100790.84;5059383;28;20378;-62
2023/07/23 01:25:36;;;;;;;;;;;;;;;14.82;100.00;100798.63;5051240;28;19920;-60
2023/07/23 01:28:02;;;;;;;;;;;;;;;14.81;100.00;100787.41;5056917;28;20053;-61
2023/07/23 01:30:27;;;;;;;;;;;;;;;14.82;100.00;100780.53;5061665;28;19972;-61
2023/07/23 01:32:52;;;;;;;;;;;;;;;14.82;100.00;100780.53;5058844;28;20290;-61
2023/07/23 01:35:18;;;;;;;;;;;;;;;14.82;100.00;100773.63;5059229;28;20013;-61
2023/07/23 01:37:44;;;;;;;;;;;;;;;14.82;100.00;100768.44;5058647;28;19921;-60
2023/07/23 01:40:10;;;;;;;;;;;;;;;14.80;100.00;100766.66;5057536;28;20451;-61
2023/07/23 01:42:35;;;;;;;;;;;;;;;14.79;100.00;100760.63;5057212;28;20013;-60
2023/07/23 01:45:04;;;;;;;;;;;;;;;14.77;100.00;100759.75;5055667;28;20024;-60
2023/07/23 01:47:29;;;;;;;;;;;;;;;14.77;100.00;100757.19;5058550;28;19927;-61
2023/07/23 01:49:54;;;;;;;;;;;;;;;14.77;100.00;100752.00;5054790;28;19932;-62
2023/07/23 01:52:20;;;;;;;;;;;;;;;14.77;100.00;100753.72;5057992;28;19916;-61
2023/07/23 01:54:45;;;;;;;;;;;;;;;14.76;100.00;100747.69;5055668;27;19925;-61
2023/07/23 01:57:10;;;;;;;;;;;;;;;14.75;100.00;100740.78;5057491;28;20351;-61
2023/07/23 01:59:35;;;;;;;;;;;;;;;14.76;100.00;100745.09;5059293;28;19927;-61
2023/07/23 02:02:04;;;;;;;;;;;;;;;14.74;100.00;100732.16;5061405;28;19924;-60
2023/07/23 02:04:29;;;;;;;;;;;;;;;14.75;100.00;100736.47;5058363;28;19929;-61
2023/07/23 02:06:54;;;;;;;;;;;;;;;14.75;100.00;100728.69;5058130;28;20082;-60
2023/07/23 02:09:20;;;;;;;;;;;;;;;14.76;100.00;100719.22;5059429;28;20389;-61
2023/07/23 02:11:45;;;;;;;;;;;;;;;14.74;100.00;100721.78;5063502;28;19920;-60
2023/07/23 02:14:10;;;;;;;;;;;;;;;14.77;100.00;100720.94;5062420;28;19928;-61
2023/07/23 02:16:35;;;;;;;;;;;;;;;14.76;100.00;100714.03;5065901;28;19924;-60
2023/07/23 02:19:01;;;;;;;;;;;;;;;14.77;100.00;100714.91;5056576;27;20286;-60
2023/07/23 02:21:26;;;;;;;;;;;;;;;14.79;100.00;100702.81;5058225;28;19924;-61
2023/07/23 02:23:51;;;;;;;;;;;;;;;14.79;100.00;100700.22;5063725;27;19927;-60
2023/07/23 02:26:17;;;;;;;;;;;;;;;14.78;100.00;100704.53;5060788;28;19924;-62
2023/07/23 02:28:43;;;;;;;;;;;;;;;14.78;100.00;100694.19;5062304;28;19925;-61
2023/07/23 02:31:09;;;;;;;;;;;;;;;14.79;100.00;100688.16;5056606;28;19921;-61
2023/07/23 02:33:34;;;;;;;;;;;;;;;14.79;100.00;100693.34;5056644;28;20263;-62
2023/07/23 02:35:59;;;;;;;;;;;;;;;14.78;100.00;100686.44;5058612;28;19943;-60
2023/07/23 02:38:25;;;;;;;;;;;;;;;14.80;100.00;100689.88;5052878;28;20068;-61
2023/07/23 02:40:54;;;;;;;;;;;;;;;14.81;100.00;100683.00;5055078;28;19997;-61
2023/07/23 02:43:19;;;;;;;;;;;;;;;14.83;100.00;100683.88;5057788;28;19921;-61
2023/07/23 02:45:45;;;;;;;;;;;;;;;14.82;100.00;100672.66;5053966;28;20409;-60
2023/07/23 02:48:10;;;;;;;;;;;;;;;14.84;100.00;100680.44;5053694;28;20213;-51
2023/07/23 02:50:35;;;;;;;;;;;;;;;14.83;100.00;100674.38;5054769;28;19927;-51
2023/07/23 02:53:00;;;;;;;;;;;;;;;14.85;100.00;100672.66;5059791;28;20085;-50
2023/07/23 02:55:26;;;;;;;;;;;;;;;14.86;100.00;100673.53;5055988;28;20303;-46
2023/07/23 02:57:51;;;;;;;;;;;;;;;14.86;100.00;100674.41;5053810;28;19921;-48
2023/07/23 03:00:18;;;;;;;;;;;;;;;14.88;100.00;100671.84;5055449;28;19916;-47
2023/07/23 03:02:44;;;;;;;;;;;;;;;14.87;100.00;100667.53;5055989;28;19920;-48
2023/07/23 03:05:10;;;;;;;;;;;;;;;14.88;100.00;100664.09;5060966;28;19935;-47
2023/07/23 03:07:36;;;;;;;;;;;;;;;14.89;100.00;100664.09;5059980;28;19964;-47
2023/07/23 03:10:01;;;;;;;;;;;;;;;14.91;100.00;100657.19;5057615;28;19920;-48
2023/07/23 03:12:26;;;;;;;;;;;;;;;14.93;100.00;100671.03;5061854;28;19929;-48
2023/07/23 03:14:52;;;;;;;;;;;;;;;14.99;100.00;100652.94;5049465;28;20288;-48
2023/07/23 03:17:17;;;;;;;;;;;;;;;15.03;100.00;100657.25;5065578;28;19928;-48
2023/07/23 03:19:43;;;;;;;;;;;;;;;15.13;100.00;100657.34;5062991;28;19972;-50
2023/07/23 03:22:08;;;;;;;;;;;;;;;15.18;100.00;100653.06;5048184;28;19920;-50
2023/07/23 03:24:33;;;;;;;;;;;;;;;15.25;100.00;100647.06;5064834;28;19920;-50
2023/07/23 03:26:58;;;;;;;;;;;;;;;15.36;99.00;100653.16;5066086;27;19916;-51
2023/07/23 03:29:24;;;;;;;;;;;;;;;15.46;98.11;100647.16;5061345;27;19920;-50
2023/07/23 03:31:49;;;;;;;;;;;;;;;15.49;97.80;100656.69;5060527;28;19988;-51
2023/07/23 03:34:14;;;;;;;;;;;;;;;15.53;96.45;100643.75;5042327;28;19920;-50
2023/07/23 03:36:40;;;;;;;;;;;;;;;15.59;93.95;100649.78;5058270;28;19925;-49
2023/07/23 03:39:05;;;;;;;;;;;;;;;15.72;93.00;100646.44;5060807;27;19955;-48
2023/07/23 03:41:30;;;;;;;;;;;;;;;15.78;93.48;100649.91;5058139;28;20055;-50
2023/07/23 03:43:55;;;;;;;;;;;;;;;15.81;92.61;100644.72;5042076;28;20283;-50
2023/07/23 03:46:21;;;;;;;;;;;;;;;15.88;91.05;100643.03;5034991;28;19925;-50
2023/07/23 03:48:47;;;;;;;;;;;;;;;15.92;91.06;100643.91;5038335;28;19924;-49
2023/07/23 03:51:14;;;;;;;;;;;;;;;15.94;90.78;100644.75;5053862;28;19930;-49
2023/07/23 03:53:40;;;;;;;;;;;;;;;15.95;90.41;100641.31;5052382;28;19928;-50
2023/07/23 03:56:05;;;;;;;;;;;;;;;15.98;91.20;100647.38;5033903;28;19927;-51
2023/07/23 03:58:30;;;;;;;;;;;;;;;16.04;89.08;100652.56;5057346;28;19938;-51
2023/07/23 04:00:55;;;;;;;;;;;;;;;15.97;89.55;100639.59;5050610;28;19924;-50
2023/07/23 04:03:21;;;;;;;;;;;;;;;15.98;90.07;100642.19;5062440;28;19920;-50
2023/07/23 04:05:46;;;;;;;;;;;;;;;15.97;90.66;100639.59;5060566;27;20306;-50
2023/07/23 04:08:11;;;;;;;;;;;;;;;15.99;90.27;100643.91;5059793;28;20206;-51
2023/07/23 04:10:36;;;;;;;;;;;;;;;15.95;90.03;100647.34;5031563;28;20299;-50
2023/07/23 04:13:03;;;;;;;;;;;;;;;15.95;89.92;100642.16;5040426;28;19920;-47
2023/07/23 04:15:29;;;;;;;;;;;;;;;15.95;89.27;100647.34;5059693;28;19928;-48
2023/07/23 04:17:56;;;;;;;;;;;;;;;15.99;89.42;100649.09;5059949;28;20234;-47
2023/07/23 04:20:21;;;;;;;;;;;;;;;16.03;88.80;100642.22;5061083;28;19949;-49
2023/07/23 04:22:47;;;;;;;;;;;;;;;16.07;88.85;100654.28;5055244;28;20360;-49
2023/07/23 04:25:12;;;;;;;;;;;;;;;16.08;88.46;100654.31;5044156;28;20012;-48
2023/07/23 04:27:37;;;;;;;;;;;;;;;16.05;88.19;100648.25;5060173;28;19964;-48
2023/07/23 04:30:02;;;;;;;;;;;;;;;16.04;88.27;100647.41;5042444;28;19921;-47
2023/07/23 04:32:28;;;;;;;;;;;;;;;16.05;88.64;100649.13;5058522;28;19927;-47
2023/07/23 04:34:53;;;;;;;;;;;;;;;16.06;88.36;100649.97;5056677;28;19925;-50
2023/07/23 04:37:18;;;;;;;;;;;;;;;16.05;87.70;100654.31;5061231;28;20347;-47
2023/07/23 04:39:43;;;;;;;;;;;;;;;16.08;87.40;100656.91;5061913;28;19928;-48
2023/07/23 04:42:09;;;;;;;;;;;;;;;16.11;87.20;100645.66;5053879;28;19957;-46
2023/07/23 04:44:34;;;;;;;;;;;;;;;16.13;87.39;100650.84;5059754;28;19920;-49
2023/07/23 04:46:59;;;;;;;;;;;;;;;16.15;87.61;100643.97;5058987;28;19924;-48
2023/07/23 04:49:25;;;;;;;;;;;;;;;16.16;87.53;100645.69;5059287;28;19929;-48
2023/07/23 04:51:50;;;;;;;;;;;;;;;16.19;87.63;100645.69;5055282;28;19956;-51
2023/07/23 04:54:15;;;;;;;;;;;;;;;16.18;87.16;100644.81;5040014;28;19961;-50
2023/07/23 04:56:40;;;;;;;;;;;;;;;16.18;87.25;100643.94;5055152;28;19925;-62
2023/07/23 04:59:07;;;;;;;;;;;;;;;16.21;86.95;100643.97;5060709;28;20392;-62
2023/07/23 05:01:33;;;;;;;;;;;;;;;16.21;86.97;100639.66;5063437;28;19920;-61
2023/07/23 05:03:58;;;;;;;;;;;;;;;16.23;87.40;100647.44;5051154;27;19925;-61
2023/07/23 05:06:23;;;;;;;;;;;;;;;16.24;86.38;100636.19;5053855;28;19967;-62
2023/07/23 05:08:48;;;;;;;;;;;;;;;16.25;86.76;100641.38;5055656;28;19927;-61
2023/07/23 05:11:14;;;;;;;;;;;;;;;16.25;86.63;100641.38;5058725;28;20008;-61
2023/07/23 05:13:39;;;;;;;;;;;;;;;16.28;87.13;100638.78;5058739;28;19960;-61
2023/07/23 05:16:04;;;;;;;;;;;;;;;16.27;88.16;100642.25;5066525;28;19956;-61
2023/07/23 05:18:30;;;;;;;;;;;;;;;16.33;87.14;100644.00;5063306;28;19958;-62
2023/07/23 05:20:56;;;;;;;;;;;;;;;16.32;86.60;100644.84;5061696;28;19920;-61
2023/07/23 05:23:21;;;;;;;;;;;;;;;16.30;87.57;100655.22;5062573;28;19923;-61
2023/07/23 05:25:47;;;;;;;;;;;;;;;16.24;87.88;100650.00;5061656;28;19969;-61
2023/07/23 05:28:12;;;;;;;;;;;;;;;16.24;87.99;100654.34;5061068;28;19949;-61
2023/07/23 05:30:38;;;;;;;;;;;;;;;16.21;88.18;100650.03;5062909;28;20294;-60
2023/07/23 05:33:03;;;;;;;;;;;;;;;16.23;88.57;100640.50;5058271;28;20015;-61
2023/07/23 05:35:29;;;;;;;;;;;;;;;16.22;88.99;100643.09;5066680;28;19955;-60
2023/07/23 05:37:54;;;;;;;;;;;;;;;16.21;88.39;100650.03;5066071;28;19952;-61
2023/07/23 05:40:20;;;;;;;;;;;;;;;16.19;88.67;100640.50;5058049;28;19925;-61
2023/07/23 05:42:45;;;;;;;;;;;;;;;16.17;88.59;100645.69;5063277;28;19913;-61
2023/07/23 05:45:11;;;;;;;;;;;;;;;16.18;89.04;100647.41;5058212;28;19932;-61
2023/07/23 05:47:36;;;;;;;;;;;;;;;16.17;88.97;100642.22;5054107;28;19928;-60
2023/07/23 05:50:01;;;;;;;;;;;;;;;16.19;89.14;100643.94;5057164;28;19928;-62
2023/07/23 05:52:26;;;;;;;;;;;;;;;16.19;88.94;100643.09;5050783;28;19939;-61
2023/07/23 05:54:52;;;;;;;;;;;;;;;16.19;88.77;100637.91;5041078;28;20365;-62
2023/07/23 05:57:17;;;;;;;;;;;;;;;16.20;88.58;100637.03;5058909;28;19924;-61
2023/07/23 05:59:42;;;;;;;;;;;;;;;16.20;87.64;100637.91;5063649;28;19920;-60
2023/07/23 06:02:08;;;;;;;;;;;;;;;16.21;88.42;100634.47;5060841;28;20393;-60
2023/07/23 06:04:33;;;;;;;;;;;;;;;16.19;88.69;100637.91;5062629;28;19924;-61
2023/07/23 06:06:58;;;;;;;;;;;;;;;16.23;87.83;100631.84;5057057;28;20286;-61
2023/07/23 06:09:25;;;;;;;;;;;;;;;16.21;88.02;100638.78;5057516;28;19921;-61
2023/07/23 06:11:51;;;;;;;;;;;;;;;16.22;87.82;100637.91;5062289;27;19935;-61
2023/07/23 06:14:16;;;;;;;;;;;;;;;16.24;88.85;100639.63;5059774;28;19921;-61
2023/07/23 06:16:42;;;;;;;;;;;;;;;16.24;88.41;100636.19;5028831;28;19925;-58
2023/07/23 06:19:07;;;;;;;;;;;;;;;16.27;88.51;100641.38;5063199;28;19920;-61
2023/07/23 06:21:32;;;;;;;;;;;;;;;16.28;89.75;100636.19;5064139;28;19927;-61
2023/07/23 06:23:58;;;;;;;;;;;;;;;16.20;91.06;100647.41;5065841;27;19931;-61
2023/07/23 06:26:23;;;;;;;;;;;;;;;16.14;90.99;100645.69;5062463;28;20336;-60
2023/07/23 06:28:48;;;;;;;;;;;;;;;16.02;93.17;100643.06;5059932;28;19980;-60
2023/07/23 06:31:13;;;;;;;;;;;;;;;16.02;92.57;100643.06;5061136;28;19925;-60
2023/07/23 06:33:39;;;;;;;;;;;;;;;15.90;93.86;100654.28;5058965;28;19959;-59
2023/07/23 06:36:04;;;;;;;;;;;;;;;15.89;95.16;100643.88;5061596;28;19952;-59
2023/07/23 06:38:29;;;;;;;;;;;;;;;15.84;95.25;100654.25;5058330;28;20592;-60
2023/07/23 06:40:55;;;;;;;;;;;;;;;15.83;95.27;100652.50;5058674;28;20357;-61
2023/07/23 06:43:21;;;;;;;;;;;;;;;15.81;95.79;100665.47;5057890;28;20003;-61
2023/07/23 06:45:47;;;;;;;;;;;;;;;15.79;96.60;100661.16;5059748;28;19927;-59
2023/07/23 06:48:13;;;;;;;;;;;;;;;15.79;96.04;100666.34;5035152;28;19928;-60
2023/07/23 06:50:38;;;;;;;;;;;;;;;15.85;96.67;100671.53;5047848;28;19968;-60
2023/07/23 06:53:04;;;;;;;;;;;;;;;15.88;96.41;100673.28;5057064;28;19924;-61
2023/07/23 06:55:29;;;;;;;;;;;;;;;15.86;97.45;100672.41;5063522;28;20443;-59
2023/07/23 06:57:55;;;;;;;;;;;;;;;15.87;99.02;100674.13;5064674;28;19956;-60
2023/07/23 07:00:20;;;;;;;;;;;;;;;15.93;98.22;100669.84;5062970;28;19924;-60
2023/07/23 07:02:45;;;;;;;;;;;;;;;15.85;99.16;100668.94;5050292;28;20548;-60
2023/07/23 07:05:11;;;;;;;;;;;;;;;15.90;99.42;100675.03;5062741;28;20027;-59
2023/07/23 07:07:37;;;;;;;;;;;;;;;15.82;100.00;100676.69;5062359;28;19925;-59
2023/07/23 07:10:03;;;;;;;;;;;;;;;15.68;100.00;100679.25;5061769;27;20380;-59
2023/07/23 07:12:28;;;;;;;;;;;;;;;15.58;100.00;100685.22;5061571;28;20406;-60
2023/07/23 07:14:54;;;;;;;;;;;;;;;15.42;100.00;100676.50;5065094;27;19921;-58
2023/07/23 07:17:19;;;;;;;;;;;;;;;15.38;100.00;100682.53;5062539;28;19929;-59
2023/07/23 07:19:44;;;;;;;;;;;;;;;15.32;100.00;100676.44;5035188;28;19920;-59
2023/07/23 07:22:10;;;;;;;;;;;;;;;15.23;100.00;100679.88;5042459;28;19924;-60
2023/07/23 07:24:35;;;;;;;;;;;;;;;15.14;100.00;100669.44;5063232;28;19973;-59
2023/07/23 07:27:00;;;;;;;;;;;;;;;15.09;100.00;100671.13;5056866;28;20306;-59
2023/07/23 07:29:26;;;;;;;;;;;;;;;15.05;100.00;100675.44;5054205;28;19932;-59
2023/07/23 07:31:51;;;;;;;;;;;;;;;15.00;100.00;100677.13;5059423;28;19921;-59
2023/07/23 07:34:16;;;;;;;;;;;;;;;14.98;100.00;100682.25;5059482;28;19925;-60
2023/07/23 07:36:41;;;;;;;;;;;;;;;14.94;100.00;100680.53;5060747;28;19925;-59
2023/07/23 07:39:07;;;;;;;;;;;;;;;14.95;100.00;100674.47;5063053;28;19921;-60
2023/07/23 07:41:32;;;;;;;;;;;;;;;14.92;100.00;100674.44;5058362;28;19920;-58
2023/07/23 07:43:57;;;;;;;;;;;;;;;15.01;100.00;100682.28;5060546;28;19925;-59
2023/07/23 07:46:23;;;;;;;;;;;;;;;15.03;100.00;100683.16;5060238;28;20263;-60
2023/07/23 07:48:48;;;;;;;;;;;;;;;15.03;100.00;100672.81;5057458;27;19917;-60
2023/07/23 07:51:14;;;;;;;;;;;;;;;15.10;100.00;100673.72;5058160;28;19928;-59
2023/07/23 07:53:39;;;;;;;;;;;;;;;15.14;100.00;100675.47;5052329;28;20264;-59
2023/07/23 07:56:05;;;;;;;;;;;;;;;15.22;100.00;100665.16;5058838;28;19954;-59
2023/07/23 07:58:30;;;;;;;;;;;;;;;15.29;100.00;100665.22;5040378;28;19931;-60
2023/07/23 08:01:00;;;;;;;;;;;;;;;15.38;100.00;100666.97;5055925;28;19943;-60
2023/07/23 08:03:26;;;;;;;;;;;;;;;15.44;100.00;100671.31;5058767;28;20348;-60
2023/07/23 08:05:52;;;;;;;;;;;;;;;15.57;100.00;100676.56;5060839;28;20314;-60
2023/07/23 08:08:19;;;;;;;;;;;;;;;15.65;100.00;100670.59;5062178;27;20485;-59
2023/07/23 08:10:45;;;;;;;;;;;;;;;15.69;100.00;100673.19;5061720;28;19913;-58
2023/07/23 08:13:12;;;;;;;;;;;;;;;15.60;100.00;100665.38;5057556;27;20012;-52
2023/07/23 08:15:37;;;;;;;;;;;;;;;15.61;100.00;100666.22;5057177;28;19917;-50
2023/07/23 08:18:03;;;;;;;;;;;;;;;15.55;100.00;100685.22;5062032;28;20299;-52
2023/07/23 08:20:28;;;;;;;;;;;;;;;15.48;100.00;100671.34;5060013;27;19912;-52
2023/07/23 08:22:54;;;;;;;;;;;;;;;15.51;100.00;100673.94;5060295;28;20015;-52
2023/07/23 08:25:19;;;;;;;;;;;;;;;15.48;100.00;100668.78;5057670;28;20323;-50
2023/07/23 08:27:45;;;;;;;;;;;;;;;15.57;100.00;100665.34;5041124;28;19932;-51
2023/07/23 08:30:11;;;;;;;;;;;;;;;15.54;100.00;100671.38;5053420;28;19928;-59
2023/07/23 08:32:36;;;;;;;;;;;;;;;15.59;100.00;100663.63;5054452;28;19916;-60
2023/07/23 08:35:02;;;;;;;;;;;;;;;15.65;100.00;100665.41;5058412;27;19924;-60
2023/07/23 08:37:28;;;;;;;;;;;;;;;15.65;100.00;100665.41;5071281;28;20016;-59
2023/07/23 08:39:53;;;;;;;;;;;;;;;15.74;100.00;100673.22;5072134;28;20008;-60
2023/07/23 08:42:37;;;;;;;;;;;;;;;15.81;100.00;100662.88;5067170;28;19920;-50
2023/07/23 08:45:17;;;;;;;;;;;;;;;15.84;100.00;100664.63;5063441;27;19917;-50
2023/07/23 08:47:45;;;;;;;;;;;;;;;15.91;100.00;100665.50;5060939;28;19913;-51
2023/07/23 08:50:12;;;;;;;;;;;;;;;15.94;100.00;100676.75;5058765;28;20349;-49
2023/07/23 08:52:39;;;;;;;;;;;;;;;15.87;100.00;100667.22;5064922;28;19940;-51
2023/07/23 08:55:05;;;;;;;;;;;;;;;15.96;100.00;100676.78;5065108;28;19923;-52
2023/07/23 08:57:32;;;;;;;;;;;;;;;15.93;100.00;100658.59;5062801;28;19921;-50
2023/07/23 08:59:58;;;;;;;;;;;;;;;16.00;100.00;100666.38;5060914;28;19917;-49
2023/07/23 09:02:24;;;;;;;;;;;;;;;16.07;100.00;100667.28;5058991;28;19916;-51
2023/07/23 09:04:51;;;;;;;;;;;;;;;16.06;100.00;100666.41;5062557;28;19931;-50
2023/07/23 09:07:17;;;;;;;;;;;;;;;16.09;100.00;100661.25;5064086;28;20367;-48
2023/07/23 09:09:42;;;;;;;;;;;;;;;16.23;100.00;100668.19;5063323;28;19924;-48
2023/07/23 09:12:08;;;;;;;;;;;;;;;16.22;100.00;100672.50;5057948;28;20251;-47
2023/07/23 09:14:40;;;;;;;;;;;;;;;16.23;100.00;100669.03;5054933;28;19966;-50
2023/07/23 09:17:14;;;;;;;;;;;;;;;16.20;100.00;100670.75;5055547;28;19920;-50
2023/07/23 09:19:40;;;;;;;;;;;;;;;16.23;100.00;100670.78;5056509;28;19923;-51
2023/07/23 09:22:05;;;;;;;;;;;;;;;16.32;100.00;100674.25;5065268;28;19920;-48
2023/07/23 09:24:33;;;;;;;;;;;;;;;16.45;100.00;100685.53;5065418;27;19977;-50
2023/07/23 09:26:59;;;;;;;;;;;;;;;16.38;100.00;100669.91;5060026;28;19913;-51
2023/07/23 09:29:33;;;;;;;;;;;;;;;16.33;100.00;100675.13;5061383;27;19923;-50
2023/07/23 09:31:58;;;;;;;;;;;;;;;16.45;100.00;100680.34;5060735;28;20007;-48
2023/07/23 09:34:24;;;;;;;;;;;;;;;16.42;100.00;100680.31;5059101;27;20024;-50
2023/07/23 09:36:51;;;;;;;;;;;;;;;16.43;100.00;100671.66;5058097;28;19959;-51
2023/07/23 09:39:16;;;;;;;;;;;;;;;16.40;100.00;100682.06;5060440;28;19912;-50
2023/07/23 09:41:42;;;;;;;;;;;;;;;16.25;100.00;100675.09;5061355;27;20447;-48
2023/07/23 09:44:09;;;;;;;;;;;;;;;16.16;100.00;100676.81;5063365;28;19985;-51
2023/07/23 09:46:35;;;;;;;;;;;;;;;16.08;100.00;100682.00;5063917;28;19912;-47
2023/07/23 09:49:01;;;;;;;;;;;;;;;16.00;100.00;100681.94;5062158;27;19942;-51
2023/07/23 09:51:26;;;;;;;;;;;;;;;16.01;100.00;100683.69;5063835;28;19920;-48
2023/07/23 09:53:51;;;;;;;;;;;;;;;16.04;100.00;100682.84;5058020;28;20429;-46
2023/07/23 09:56:18;;;;;;;;;;;;;;;15.99;100.00;100685.41;5067549;28;19927;-48
2023/07/23 09:58:45;;;;;;;;;;;;;;;15.90;100.00;100672.44;5060786;28;19924;-51
2023/07/23 10:01:11;;;;;;;;;;;;;;;15.86;100.00;100682.78;5063958;28;20055;-48
2023/07/23 10:03:36;;;;;;;;;;;;;;;15.78;100.00;100674.97;5058692;28;20386;-48
2023/07/23 10:06:02;;;;;;;;;;;;;;;15.75;100.00;100691.38;5054988;28;19927;-51
2023/07/23 10:08:28;;;;;;;;;;;;;;;15.70;100.00;100694.81;5060053;28;19917;-48
2023/07/23 10:10:53;;;;;;;;;;;;;;;15.69;100.00;100682.69;5043777;28;19917;-48
2023/07/23 10:13:19;;;;;;;;;;;;;;;15.71;100.00;100694.84;5067673;28;19916;-51
2023/07/23 10:15:46;;;;;;;;;;;;;;;15.71;100.00;100683.56;5065331;28;19980;-48
2023/07/23 10:18:12;;;;;;;;;;;;;;;15.67;100.00;100694.81;5061393;28;19929;-47
2023/07/23 10:20:38;;;;;;;;;;;;;;;15.65;100.00;100697.41;5066183;27;19964;-48
2023/07/23 10:23:04;;;;;;;;;;;;;;;15.65;100.00;100704.28;5066245;28;19921;-48
2023/07/23 10:25:31;;;;;;;;;;;;;;;15.62;100.00;100692.19;5067943;28;19916;-48
2023/07/23 10:27:56;;;;;;;;;;;;;;;15.67;100.00;100702.59;5061356;28;20381;-60
2023/07/23 10:30:22;;;;;;;;;;;;;;;15.69;100.00;100699.13;5056282;28;20425;-61
2023/07/23 10:33:07;;;;;;;;;;;;;;;15.70;100.00;100705.16;5042843;28;20011;-60
2023/07/23 10:35:51;;;;;;;;;;;;;;;15.73;100.00;100707.78;5058616;28;20023;-59
2023/07/23 10:38:26;;;;;;;;;;;;;;;15.73;100.00;100697.44;5061030;28;19916;-59
2023/07/23 10:40:51;;;;;;;;;;;;;;;15.73;100.00;100700.00;5062884;28;19917;-61
2023/07/23 10:43:17;;;;;;;;;;;;;;;15.74;100.00;100706.94;5061921;28;20426;-60
2023/07/23 10:46:00;;;;;;;;;;;;;;;15.78;100.00;100706.09;5059667;28;19972;-59
2023/07/23 10:48:36;;;;;;;;;;;;;;;15.85;100.00;100694.00;5062938;28;19916;-50
2023/07/23 10:51:01;;;;;;;;;;;;;;;15.85;100.00;100689.69;5061854;28;19920;-51
2023/07/23 10:53:30;;;;;;;;;;;;;;;15.99;100.00;100695.78;5043057;27;20336;-48
2023/07/23 10:55:58;;;;;;;;;;;;;;;15.96;100.00;100697.53;5058435;28;19917;-52
2023/07/23 10:58:24;;;;;;;;;;;;;;;16.02;100.00;100697.53;5060385;28;20330;-48
2023/07/23 11:00:53;;;;;;;;;;;;;;;16.07;100.00;100701.84;5061840;28;20007;-51
2023/07/23 11:03:20;;;;;;;;;;;;;;;16.14;100.00;100691.50;5060706;27;19919;-48
2023/07/23 11:05:45;;;;;;;;;;;;;;;16.21;100.00;100688.06;5063551;28;19973;-60
2023/07/23 11:08:14;;;;;;;;;;;;;;;16.35;100.00;100700.19;5060585;28;19973;-60
2023/07/23 11:10:58;;;;;;;;;;;;;;;16.41;100.00;100685.50;5056199;28;19959;-61
2023/07/23 11:13:28;;;;;;;;;;;;;;;16.53;100.00;100696.75;5061449;28;19916;-61
2023/07/23 11:15:54;;;;;;;;;;;;;;;16.71;100.00;100689.91;5058127;28;19927;-62
2023/07/23 11:18:19;;;;;;;;;;;;;;;16.83;100.00;100682.97;5058623;28;19970;-61
2023/07/23 11:20:49;;;;;;;;;;;;;;;17.10;100.00;100684.66;5039626;28;20341;-58
2023/07/23 11:23:16;;;;;;;;;;;;;;;17.43;100.00;100681.13;5061114;28;19992;-61
2023/07/23 11:25:41;;;;;;;;;;;;;;;17.76;100.00;100683.66;5058813;28;20371;-61
2023/07/23 11:28:07;;;;;;;;;;;;;;;17.99;100.00;100689.59;5061012;28;19955;-61
2023/07/23 11:30:33;;;;;;;;;;;;;;;18.23;100.00;100686.88;5060908;28;19925;-59
2023/07/23 11:32:58;;;;;;;;;;;;;;;18.42;100.00;100700.63;5059846;28;19920;-50
2023/07/23 11:35:24;;;;;;;;;;;;;;;18.57;100.00;100685.78;5059579;28;19966;-51
2023/07/23 11:37:49;;;;;;;;;;;;;;;18.56;100.00;100691.84;5038211;28;22195;-50
2023/07/23 11:40:21;;;;;;;;;;;;;;;18.53;100.00;100687.53;5058262;27;19920;-50
2023/07/23 11:42:47;;;;;;;;;;;;;;;18.60;100.00;100677.94;5056378;28;20335;-49
2023/07/23 11:45:12;;;;;;;;;;;;;;;18.70;100.00;100677.88;5054797;28;20005;-53
2023/07/23 11:47:47;;;;;;;;;;;;;;;18.89;100.00;100691.63;5060185;28;19939;-61
2023/07/23 11:50:13;;;;;;;;;;;;;;;18.85;100.00;100689.03;5058733;28;20149;-60
2023/07/23 11:52:38;;;;;;;;;;;;;;;18.82;100.00;100683.88;5056445;28;19925;-60
2023/07/23 11:55:03;;;;;;;;;;;;;;;18.80;100.00;100689.06;5057616;28;20040;-60
2023/07/23 11:57:29;;;;;;;;;;;;;;;18.73;100.00;100688.28;5059857;28;19927;-61
2023/07/23 11:59:54;;;;;;;;;;;;;;;18.76;100.00;100674.38;5058115;28;19924;-61
2023/07/23 12:02:20;;;;;;;;;;;;;;;18.89;100.00;100678.59;5057503;28;20011;-60
2023/07/23 12:04:45;;;;;;;;;;;;;;;19.04;100.00;100674.97;5060833;28;20374;-61
2023/07/23 12:07:10;;;;;;;;;;;;;;;19.20;100.00;100673.94;5040757;28;20008;-60
2023/07/23 12:09:36;;;;;;;;;;;;;;;19.35;100.00;100670.28;5052760;28;20401;-61
2023/07/23 12:12:01;;;;;;;;;;;;;;;19.39;100.00;100677.22;5056101;28;19924;-62
2023/07/23 12:14:26;;;;;;;;;;;;;;;19.42;100.00;100671.13;5052701;28;19939;-60
2023/07/23 12:16:55;;;;;;;;;;;;;;;19.41;100.00;100670.22;5047314;27;19921;-59
2023/07/23 12:19:21;;;;;;;;;;;;;;;19.42;100.00;100665.91;5053507;28;19948;-61
2023/07/23 12:21:47;;;;;;;;;;;;;;;19.44;100.00;100670.22;5050833;28;20390;-60
2023/07/23 12:24:13;;;;;;;;;;;;;;;19.39;100.00;100665.94;5050227;28;20393;-60